createdAt,value
2022-10-10T00:01:15.852Z,1.63
2022-10-10T00:03:43.602Z,2.07
2022-10-10T00:06:11.797Z,1.57
2022-10-10T00:08:39.579Z,2.17
2022-10-10T00:11:07.066Z,1.83
2022-10-10T00:13:36.211Z,1.57
2022-10-10T00:16:04.301Z,3.27
2022-10-10T00:18:32.112Z,2.83
2022-10-10T00:20:59.531Z,2.40
2022-10-10T00:23:26.965Z,1.83
2022-10-10T00:25:54.459Z,1.50
2022-10-10T00:28:21.970Z,3.07
2022-10-10T00:30:50.804Z,2.23
2022-10-10T00:33:18.302Z,2.50
2022-10-10T00:35:45.722Z,2.63
2022-10-10T00:38:13.598Z,2.20
2022-10-10T00:40:46.105Z,2.40
2022-10-10T00:43:13.599Z,2.20
2022-10-10T00:45:42.220Z,4.73
2022-10-10T00:48:13.093Z,2.20
2022-10-10T00:50:42.541Z,3.17
2022-10-10T00:53:11.213Z,2.90
2022-10-10T00:55:38.784Z,3.07
2022-10-10T00:58:07.455Z,2.37
2022-10-10T01:00:34.919Z,3.10
2022-10-10T01:03:02.341Z,1.73
2022-10-10T01:05:31.370Z,1.93
2022-10-10T01:07:58.975Z,2.47
2022-10-10T01:10:26.680Z,2.97
2022-10-10T01:13:00.892Z,4.40
2022-10-10T01:15:31.812Z,2.57
2022-10-10T01:18:03.741Z,2.30
2022-10-10T01:20:38.772Z,4.40
2022-10-10T01:23:24.699Z,1.40
2022-10-10T01:25:59.479Z,2.80
2022-10-10T01:28:35.037Z,2.50
2022-10-10T01:31:03.246Z,2.13
2022-10-10T01:33:33.948Z,1.93
2022-10-10T01:36:04.885Z,6.10
2022-10-10T01:38:36.752Z,1.93
2022-10-10T01:41:04.935Z,2.20
2022-10-10T01:43:33.873Z,3.53
2022-10-10T01:46:01.323Z,3.20
2022-10-10T01:48:29.986Z,1.30
2022-10-10T01:51:06.871Z,2.83
2022-10-10T01:53:40.190Z,1.87
2022-10-10T01:56:09.731Z,2.70
2022-10-10T01:58:52.002Z,3.00
2022-10-10T02:01:23.894Z,2.67
2022-10-10T02:03:55.215Z,5.37
2022-10-10T02:06:26.801Z,5.57
2022-10-10T02:08:55.676Z,2.03
2022-10-10T02:11:24.166Z,1.60
2022-10-10T02:13:53.334Z,1.93
2022-10-10T02:16:24.452Z,3.37
2022-10-10T02:18:53.594Z,2.27
2022-10-10T02:21:21.374Z,3.10
2022-10-10T02:23:51.313Z,5.17
2022-10-10T02:26:19.671Z,2.10
2022-10-10T02:28:51.030Z,2.53
2022-10-10T02:31:22.278Z,4.30
2022-10-10T02:33:52.947Z,1.87
2022-10-10T02:36:20.995Z,1.90
2022-10-10T02:38:49.028Z,1.90
2022-10-10T02:41:18.458Z,2.97
2022-10-10T02:43:46.052Z,4.30
2022-10-10T02:46:14.765Z,3.03
2022-10-10T02:48:42.334Z,3.17
2022-10-10T02:51:11.650Z,2.70
2022-10-10T02:53:39.227Z,4.13
2022-10-10T02:56:06.897Z,3.30
2022-10-10T02:58:34.293Z,3.70
2022-10-10T03:01:01.771Z,2.43
2022-10-10T03:03:29.231Z,1.20
2022-10-10T03:05:56.623Z,2.63
2022-10-10T03:08:25.359Z,3.30
2022-10-10T03:10:56.762Z,1.80
2022-10-10T03:13:24.222Z,3.63
2022-10-10T03:15:51.711Z,2.67
2022-10-10T03:18:19.084Z,1.80
2022-10-10T03:20:46.619Z,2.47
2022-10-10T03:23:14.144Z,2.40
2022-10-10T03:25:43.795Z,3.57
2022-10-10T03:28:11.638Z,4.40
2022-10-10T03:30:39.696Z,2.37
2022-10-10T03:33:07.359Z,2.17
2022-10-10T03:35:34.826Z,2.20
2022-10-10T03:38:02.270Z,5.23
2022-10-10T03:40:30.229Z,5.37
2022-10-10T03:42:59.705Z,1.63
2022-10-10T03:45:27.242Z,3.23
2022-10-10T03:47:54.660Z,6.70
2022-10-10T03:50:22.070Z,2.03
2022-10-10T03:52:49.788Z,2.10
2022-10-10T03:55:17.488Z,1.87
2022-10-10T03:57:44.955Z,2.47
2022-10-10T04:00:14.424Z,2.40
2022-10-10T04:02:41.926Z,2.63
2022-10-10T04:05:09.553Z,2.70
2022-10-10T04:07:36.986Z,2.50
2022-10-10T04:10:04.979Z,2.63
2022-10-10T04:12:32.378Z,6.10
2022-10-10T04:14:59.746Z,2.27
2022-10-10T04:17:28.737Z,1.87
2022-10-10T04:19:56.140Z,2.30
2022-10-10T04:22:23.551Z,3.07
2022-10-10T04:24:50.963Z,2.33
2022-10-10T04:27:18.385Z,2.83
2022-10-10T04:29:45.765Z,3.03
2022-10-10T04:32:13.193Z,2.13
2022-10-10T04:34:41.998Z,2.63
2022-10-10T04:37:09.389Z,2.37
2022-10-10T04:39:36.785Z,3.33
2022-10-10T04:42:04.212Z,4.23
2022-10-10T04:44:31.599Z,3.27
2022-10-10T04:46:58.987Z,4.23
2022-10-10T04:49:26.528Z,4.23
2022-10-10T04:51:55.466Z,1.53
2022-10-10T04:54:22.839Z,3.57
2022-10-10T04:56:50.390Z,2.67
2022-10-10T04:59:18.025Z,5.43
2022-10-10T05:01:45.585Z,5.70
2022-10-10T05:04:14.651Z,3.20
2022-10-10T05:06:42.252Z,3.30
2022-10-10T05:09:13.341Z,5.30
2022-10-10T05:11:41.294Z,4.07
2022-10-10T05:14:09.694Z,3.63
2022-10-10T05:16:37.446Z,1.93
2022-10-10T05:19:05.070Z,3.57
2022-10-10T05:21:32.926Z,8.27
2022-10-10T05:24:00.621Z,3.83
2022-10-10T05:26:29.677Z,2.50
2022-10-10T05:28:58.558Z,4.53
2022-10-10T05:31:26.176Z,2.07
2022-10-10T05:33:53.887Z,3.27
2022-10-10T05:36:21.775Z,4.13
2022-10-10T05:38:49.475Z,4.40
2022-10-10T05:41:17.313Z,5.87
2022-10-10T05:43:48.815Z,2.00
2022-10-10T05:46:19.903Z,4.40
2022-10-10T05:48:47.416Z,4.77
2022-10-10T05:51:15.164Z,4.00
2022-10-10T05:53:42.868Z,6.67
2022-10-10T05:56:11.543Z,4.50
2022-10-10T05:58:39.913Z,5.93
2022-10-10T06:01:09.586Z,3.03
2022-10-10T06:03:37.480Z,4.87
2022-10-10T06:06:05.013Z,4.63
2022-10-10T06:08:32.489Z,2.60
2022-10-10T06:11:02.941Z,3.43
2022-10-10T06:13:30.325Z,3.70
2022-10-10T06:15:58.019Z,3.33
2022-10-10T06:18:26.779Z,2.57
2022-10-10T06:20:54.153Z,5.37
2022-10-10T06:23:21.590Z,2.27
2022-10-10T06:25:48.958Z,4.20
2022-10-10T06:28:16.400Z,4.93
2022-10-10T06:30:44.402Z,5.50
2022-10-10T06:33:12.804Z,8.17
2022-10-10T06:35:42.790Z,7.87
2022-10-10T06:38:10.347Z,2.60
2022-10-10T06:40:37.905Z,3.17
2022-10-10T06:43:08.797Z,5.60
2022-10-10T06:45:36.509Z,6.57
2022-10-10T06:48:03.975Z,3.87
2022-10-10T06:50:31.511Z,4.03
2022-10-10T06:53:00.259Z,2.70
2022-10-10T06:55:27.682Z,2.90
2022-10-10T06:57:55.094Z,4.43
2022-10-10T07:00:22.592Z,4.10
2022-10-10T07:02:50.257Z,3.63
2022-10-10T07:05:18.790Z,6.20
2022-10-10T07:07:46.488Z,4.33
2022-10-10T07:10:16.299Z,5.27
2022-10-10T07:12:44.953Z,4.07
2022-10-10T07:15:12.979Z,4.97
2022-10-10T07:17:40.422Z,4.90
2022-10-10T07:20:08.335Z,5.50
2022-10-10T07:22:36.002Z,3.50
2022-10-10T07:25:03.467Z,7.17
2022-10-10T07:27:32.384Z,4.03
2022-10-10T07:29:59.834Z,3.80
2022-10-10T07:32:27.332Z,6.70
2022-10-10T07:34:54.755Z,4.47
2022-10-10T07:37:22.121Z,4.67
2022-10-10T07:39:49.526Z,5.27
2022-10-10T07:42:16.919Z,4.20
2022-10-10T07:44:45.747Z,4.27
2022-10-10T07:47:13.143Z,3.50
2022-10-10T07:49:40.515Z,4.07
2022-10-10T07:52:07.923Z,4.03
2022-10-10T07:54:35.320Z,3.50
2022-10-10T07:57:02.751Z,3.33
2022-10-10T07:59:30.194Z,2.80
2022-10-10T08:01:59.080Z,5.78
2022-10-10T08:04:26.592Z,3.20
2022-10-10T08:06:54.031Z,6.30
2022-10-10T08:09:21.465Z,3.78
2022-10-10T08:11:48.858Z,3.42
2022-10-10T08:14:16.302Z,4.38
2022-10-10T08:16:43.719Z,3.90
2022-10-10T08:21:40.091Z,5.67
2022-10-10T08:24:07.928Z,5.93
2022-10-10T08:26:35.378Z,4.83
2022-10-10T08:29:02.784Z,5.17
2022-10-10T08:31:30.865Z,6.20
2022-10-10T08:33:58.420Z,7.60
2022-10-10T08:36:27.522Z,4.80
2022-10-10T08:38:57.383Z,6.17
2022-10-10T08:41:31.918Z,5.33
2022-10-10T08:44:01.974Z,5.50
2022-10-10T08:46:34.321Z,4.40
2022-10-10T08:49:13.958Z,5.00
2022-10-10T08:51:44.358Z,5.63
2022-10-10T08:54:14.474Z,6.27
2022-10-10T08:56:42.318Z,6.93
2022-10-10T08:59:12.893Z,8.83
2022-10-10T09:02:18.462Z,7.83
2022-10-10T09:04:30.461Z,8.27
2022-10-10T09:07:07.354Z,6.50
2022-10-10T09:09:37.946Z,8.47
2022-10-10T09:12:12.456Z,11.10
2022-10-10T09:14:44.611Z,6.57
2022-10-10T09:17:18.205Z,5.90
2022-10-10T09:19:51.604Z,6.30
2022-10-10T09:22:24.083Z,8.47
2022-10-10T09:24:53.182Z,6.70
2022-10-10T09:27:22.984Z,8.10
2022-10-10T09:29:53.265Z,5.53
2022-10-10T09:32:22.385Z,5.43
2022-10-10T09:34:51.953Z,6.83
2022-10-10T09:37:42.388Z,6.67
2022-10-10T09:40:13.188Z,7.27
2022-10-10T09:42:40.978Z,6.37
2022-10-10T09:45:14.625Z,9.03
2022-10-10T09:47:42.330Z,8.63
2022-10-10T09:50:13.056Z,8.13
2022-10-10T09:52:42.410Z,9.13
2022-10-10T09:55:19.451Z,7.27
2022-10-10T09:57:48.063Z,7.27
2022-10-10T10:00:26.479Z,6.10
2022-10-10T10:03:05.275Z,8.63
2022-10-10T10:05:32.823Z,6.27
2022-10-10T10:08:01.640Z,11.33
2022-10-10T10:10:30.232Z,6.93
2022-10-10T10:12:57.804Z,7.53
2022-10-10T10:15:26.714Z,6.33
2022-10-10T10:18:09.084Z,6.57
2022-10-10T10:20:37.990Z,6.33
2022-10-10T10:23:23.049Z,7.27
2022-10-10T10:26:00.139Z,7.97
2022-10-10T10:28:28.442Z,8.05
2022-10-10T10:30:56.756Z,7.63
2022-10-10T10:33:34.031Z,5.55
2022-10-10T10:36:03.931Z,8.45
2022-10-10T10:38:40.872Z,5.10
2022-10-10T10:41:13.828Z,6.90
2022-10-10T10:43:56.162Z,6.23
2022-10-10T10:46:28.967Z,9.77
2022-10-10T10:49:01.067Z,5.70
2022-10-10T10:51:43.987Z,5.93
2022-10-10T10:54:20.867Z,5.63
2022-10-10T10:56:51.786Z,4.93
2022-10-10T11:00:22.302Z,6.00
2022-10-10T11:02:54.961Z,6.88
2022-10-10T11:05:36.839Z,5.40
2022-10-10T11:08:15.185Z,8.35
2022-10-10T11:10:52.729Z,4.63
2022-10-10T11:13:23.369Z,6.20
2022-10-10T11:16:10.910Z,5.73
2022-10-10T11:18:43.562Z,6.03
2022-10-10T11:21:14.040Z,7.33
2022-10-10T11:23:44.382Z,5.50
2022-10-10T11:26:14.897Z,6.03
2022-10-10T11:28:49.312Z,5.83
2022-10-10T11:31:19.748Z,5.43
2022-10-10T11:33:49.068Z,6.63
2022-10-10T11:36:17.284Z,4.73
2022-10-10T11:38:48.266Z,4.70
2022-10-10T11:41:19.006Z,6.37
2022-10-10T11:43:47.481Z,4.80
2022-10-10T11:46:20.078Z,4.70
2022-10-10T11:48:52.063Z,4.70
2022-10-10T11:51:23.854Z,4.53
2022-10-10T11:53:54.595Z,5.10
2022-10-10T11:56:27.581Z,4.78
2022-10-10T11:58:58.666Z,8.32
2022-10-10T12:01:28.241Z,5.47
2022-10-10T12:03:57.267Z,4.85
2022-10-10T12:06:27.897Z,6.68
2022-10-10T12:08:59.006Z,7.20
2022-10-10T12:11:31.003Z,7.25
2022-10-10T12:14:00.005Z,8.30
2022-10-10T12:16:30.778Z,8.73
2022-10-10T12:19:02.223Z,7.00
2022-10-10T12:21:30.403Z,8.75
2022-10-10T12:24:02.431Z,5.95
2022-10-10T12:26:44.725Z,7.70
2022-10-10T12:29:13.575Z,7.63
2022-10-10T12:31:41.163Z,6.60
2022-10-10T12:34:14.019Z,9.02
2022-10-10T12:37:07.485Z,4.65
2022-10-10T12:39:36.594Z,6.10
2022-10-10T12:42:04.233Z,5.80
2022-10-10T12:44:44.563Z,8.13
2022-10-10T12:47:52.617Z,8.23
2022-10-10T12:50:22.441Z,4.05
2022-10-10T12:52:52.090Z,7.20
2022-10-10T12:55:20.879Z,7.45
2022-10-10T12:57:49.362Z,7.22
2022-10-10T13:00:19.028Z,5.25
2022-10-10T13:02:47.680Z,10.35
2022-10-10T13:05:16.512Z,8.30
2022-10-10T13:07:44.636Z,7.78
2022-10-10T13:10:21.943Z,5.90
2022-10-10T13:12:59.207Z,4.78
2022-10-10T13:15:28.523Z,11.70
2022-10-10T13:17:56.278Z,6.25
2022-10-10T13:20:28.317Z,6.70
2022-10-10T13:22:56.874Z,6.83
2022-10-10T13:25:24.928Z,4.93
2022-10-10T13:27:52.479Z,9.25
2022-10-10T13:30:20.979Z,3.80
2022-10-10T13:32:50.597Z,6.43
2022-10-10T13:35:18.916Z,8.68
2022-10-10T13:37:54.364Z,6.38
2022-10-10T13:40:21.983Z,6.57
2022-10-10T13:42:50.302Z,5.18
2022-10-10T13:45:30.936Z,7.82
2022-10-10T13:48:11.096Z,6.15
2022-10-10T13:50:53.672Z,4.10
2022-10-10T13:53:25.362Z,5.55
2022-10-10T13:55:58.611Z,6.22
2022-10-10T13:58:26.667Z,9.05
2022-10-10T14:00:57.638Z,7.63
2022-10-10T14:03:27.350Z,6.72
2022-10-10T14:05:54.969Z,7.80
2022-10-10T14:08:25.807Z,5.07
2022-10-10T14:10:57.399Z,4.20
2022-10-10T14:13:25.576Z,9.30
2022-10-10T14:15:53.280Z,8.40
2022-10-10T14:18:21.795Z,8.63
2022-10-10T14:20:50.862Z,6.00
2022-10-10T14:23:18.389Z,6.15
2022-10-10T14:25:46.873Z,6.97
2022-10-10T14:28:16.989Z,6.15
2022-10-10T14:30:44.618Z,7.07
2022-10-10T14:33:13.416Z,6.65
2022-10-10T14:35:41.192Z,4.13
2022-10-10T14:38:10.659Z,7.90
2022-10-10T14:40:38.158Z,9.35
2022-10-10T14:43:05.720Z,5.22
2022-10-10T14:45:33.621Z,5.75
2022-10-10T14:48:01.258Z,5.55
2022-10-10T14:50:31.908Z,4.30
2022-10-10T14:52:59.473Z,5.88
2022-10-10T14:55:28.266Z,4.28
2022-10-10T14:57:55.860Z,7.50
2022-10-10T15:00:24.340Z,7.00
2022-10-10T15:02:52.044Z,5.97
2022-10-10T15:05:19.595Z,6.30
2022-10-10T15:07:48.368Z,6.43
2022-10-10T15:13:04.795Z,7.80
2022-10-10T15:15:32.286Z,8.20
2022-10-10T15:17:59.872Z,4.82
2022-10-10T15:20:30.926Z,6.03
2022-10-10T15:22:59.091Z,4.95
2022-10-10T15:25:32.383Z,3.80
2022-10-10T15:28:01.249Z,6.63
2022-10-10T15:30:30.465Z,6.93
2022-10-10T15:32:58.011Z,4.45
2022-10-10T15:35:26.079Z,3.80
2022-10-10T15:37:53.844Z,6.80
2022-10-10T15:40:22.757Z,5.28
2022-10-10T15:42:50.742Z,3.35
2022-10-10T15:45:36.895Z,3.17
2022-10-10T15:48:07.286Z,7.20
2022-10-10T15:50:39.270Z,4.72
2022-10-10T15:53:06.861Z,5.47
2022-10-10T15:55:34.491Z,3.00
2022-10-10T15:58:04.011Z,3.05
2022-10-10T16:00:31.673Z,4.45
2022-10-10T16:02:59.341Z,4.88
2022-10-10T16:05:29.269Z,3.88
2022-10-10T16:07:56.868Z,4.97
2022-10-10T16:10:24.580Z,7.97
2022-10-10T16:12:52.707Z,4.90
2022-10-10T16:15:21.258Z,5.63
2022-10-10T16:17:48.824Z,6.40
2022-10-10T16:20:16.549Z,4.63
2022-10-10T16:22:45.648Z,6.65
2022-10-10T16:25:28.598Z,6.03
2022-10-10T16:27:56.263Z,6.22
2022-10-10T16:30:24.001Z,7.18
2022-10-10T16:32:54.565Z,12.40
2022-10-10T16:35:22.160Z,5.85
2022-10-10T16:37:51.081Z,7.97
2022-10-10T16:40:18.663Z,11.45
2022-10-10T16:42:46.195Z,6.60
2022-10-10T16:45:13.771Z,13.95
2022-10-10T16:47:41.312Z,10.33
2022-10-10T16:50:09.183Z,10.00
2022-10-10T16:52:38.221Z,8.53
2022-10-10T16:55:08.395Z,9.50
2022-10-10T16:57:36.050Z,10.23
2022-10-10T17:00:04.092Z,10.33
2022-10-10T17:02:31.625Z,7.90
2022-10-10T17:04:59.158Z,12.00
2022-10-10T17:07:26.702Z,8.90
2022-10-10T17:09:54.561Z,8.97
2022-10-10T17:12:23.629Z,7.73
2022-10-10T17:14:51.135Z,7.80
2022-10-10T17:17:19.393Z,8.53
2022-10-10T17:19:49.283Z,13.80
2022-10-10T17:22:17.243Z,12.47
2022-10-10T17:24:44.751Z,10.63
2022-10-10T17:27:12.333Z,6.37
2022-10-10T17:29:41.281Z,9.33
2022-10-10T17:32:08.839Z,8.27
2022-10-10T17:34:36.520Z,6.77
2022-10-10T17:37:04.679Z,9.17
2022-10-10T17:39:32.425Z,10.10
2022-10-10T17:42:00.362Z,13.33
2022-10-10T17:44:28.073Z,9.73
2022-10-10T17:46:57.124Z,9.97
2022-10-10T17:49:24.738Z,14.83
2022-10-10T17:51:52.319Z,11.87
2022-10-10T17:54:19.930Z,7.70
2022-10-10T17:56:47.513Z,9.97
2022-10-10T17:59:15.140Z,10.47
2022-10-10T18:01:42.768Z,16.47
2022-10-10T18:04:12.052Z,19.20
2022-10-10T18:06:39.830Z,10.60
2022-10-10T18:09:07.491Z,10.97
2022-10-10T18:11:35.346Z,9.73
2022-10-10T18:14:03.091Z,8.20
2022-10-10T18:16:32.435Z,9.50
2022-10-10T18:19:00.273Z,9.13
2022-10-10T18:21:29.301Z,9.57
2022-10-10T18:23:57.075Z,7.47
2022-10-10T18:26:25.640Z,7.27
2022-10-10T18:28:55.629Z,10.40
2022-10-10T18:31:24.275Z,9.00
2022-10-10T18:33:51.908Z,12.23
2022-10-10T18:36:21.011Z,8.47
2022-10-10T18:38:50.208Z,11.90
2022-10-10T18:41:19.258Z,13.50
2022-10-10T18:43:49.707Z,13.47
2022-10-10T18:46:18.474Z,10.50
2022-10-10T18:48:50.234Z,13.17
2022-10-10T18:51:24.396Z,9.60
2022-10-10T18:53:54.185Z,8.70
2022-10-10T18:56:24.578Z,11.53
2022-10-10T18:58:53.803Z,11.60
2022-10-10T19:01:24.827Z,11.03
2022-10-10T19:03:53.813Z,13.37
2022-10-10T19:06:22.806Z,9.83
2022-10-10T19:08:51.255Z,10.37
2022-10-10T19:11:21.336Z,11.77
2022-10-10T19:13:49.222Z,9.93
2022-10-10T19:16:17.070Z,15.70
2022-10-10T19:18:45.187Z,13.10
2022-10-10T19:21:13.361Z,10.77
2022-10-10T19:23:41.019Z,14.37
2022-10-10T19:26:09.549Z,14.57
2022-10-10T19:28:39.562Z,10.40
2022-10-10T19:31:08.451Z,15.90
2022-10-10T19:33:36.536Z,12.60
2022-10-10T19:36:05.410Z,14.13
2022-10-10T19:38:34.842Z,15.80
2022-10-10T19:41:04.641Z,11.97
2022-10-10T19:43:32.633Z,13.10
2022-10-10T19:46:04.852Z,10.80
2022-10-10T19:48:32.813Z,11.07
2022-10-10T19:51:04.394Z,13.67
2022-10-10T19:53:33.456Z,10.47
2022-10-10T19:56:02.574Z,13.13
2022-10-10T19:58:30.852Z,13.07
2022-10-10T20:00:58.557Z,11.10
2022-10-10T20:03:27.601Z,14.03
2022-10-10T20:06:00.290Z,17.20
2022-10-10T20:08:28.182Z,16.90
2022-10-10T20:10:55.829Z,16.17
2022-10-10T20:13:23.520Z,21.90
2022-10-10T20:15:51.285Z,14.77
2022-10-10T20:18:19.538Z,15.00
2022-10-10T20:20:50.224Z,13.50
2022-10-10T20:23:19.134Z,12.17
2022-10-10T20:25:46.815Z,15.37
2022-10-10T20:28:15.651Z,13.33
2022-10-10T20:30:43.983Z,15.00
2022-10-10T20:33:11.554Z,12.60
2022-10-10T20:35:39.235Z,10.77
2022-10-10T20:38:10.624Z,10.00
2022-10-10T20:40:38.452Z,11.27
2022-10-10T20:43:06.149Z,12.97
2022-10-10T20:45:35.667Z,11.77
2022-10-10T20:48:03.424Z,13.23
2022-10-10T20:50:31.075Z,11.63
2022-10-10T20:52:59.013Z,11.47
2022-10-10T20:55:28.251Z,14.83
2022-10-10T20:57:55.954Z,11.27
2022-10-10T21:00:24.460Z,11.30
2022-10-10T21:02:52.822Z,9.33
2022-10-10T21:05:20.477Z,9.17
2022-10-10T21:07:48.338Z,10.53
2022-10-10T21:10:15.980Z,9.70
2022-10-10T21:12:44.963Z,9.77
2022-10-10T21:15:12.534Z,12.27
2022-10-10T21:17:41.127Z,11.13
2022-10-10T21:20:09.211Z,10.67
2022-10-10T21:22:36.717Z,9.80
2022-10-10T21:25:04.441Z,9.67
2022-10-10T21:27:31.902Z,14.50
2022-10-10T21:30:00.881Z,17.30
2022-10-10T21:32:28.391Z,10.57
2022-10-10T21:34:58.144Z,12.30
2022-10-10T21:37:27.188Z,12.00
2022-10-10T21:39:54.651Z,12.40
2022-10-10T21:42:22.139Z,11.93
2022-10-10T21:44:49.580Z,11.10
2022-10-10T21:47:18.398Z,10.23
2022-10-10T21:49:45.894Z,9.50
2022-10-10T21:52:13.378Z,9.30
2022-10-10T21:54:40.929Z,13.80
2022-10-10T21:57:08.400Z,13.97
2022-10-10T21:59:35.959Z,9.50
2022-10-10T22:02:03.455Z,16.70
2022-10-10T22:04:32.313Z,13.00
2022-10-10T22:06:59.872Z,12.20
2022-10-10T22:09:27.504Z,10.47
2022-10-10T22:11:55.138Z,12.80
2022-10-10T22:14:22.603Z,13.77
2022-10-10T22:16:50.137Z,13.83
2022-10-10T22:19:17.665Z,10.63
2022-10-10T22:21:46.554Z,13.30
2022-10-10T22:24:14.345Z,12.00
2022-10-10T22:26:42.227Z,13.33
2022-10-10T22:29:09.743Z,11.23
2022-10-10T22:31:37.818Z,10.43
2022-10-10T22:34:05.570Z,13.73
2022-10-10T22:36:33.144Z,6.17
2022-10-10T22:39:02.001Z,12.87
2022-10-10T22:41:29.382Z,9.33
2022-10-10T22:43:56.911Z,11.40
2022-10-10T22:46:25.162Z,10.53
2022-10-10T22:48:52.666Z,10.17
2022-10-10T22:51:20.101Z,11.47
2022-10-10T22:53:48.646Z,6.80
2022-10-10T22:56:19.704Z,8.67
2022-10-10T22:58:47.592Z,11.80
2022-10-10T23:01:16.060Z,9.37
2022-10-10T23:03:43.558Z,9.40
2022-10-10T23:06:11.117Z,6.70
2022-10-10T23:08:38.999Z,9.53
2022-10-10T23:11:06.888Z,10.53
2022-10-10T23:13:35.883Z,8.73
2022-10-10T23:16:03.861Z,8.90
2022-10-10T23:18:32.218Z,7.70
2022-10-10T23:20:59.856Z,6.30
2022-10-10T23:23:27.439Z,5.60
2022-10-10T23:25:55.003Z,8.53
2022-10-10T23:28:22.529Z,9.80
2022-10-10T23:30:51.518Z,6.07
2022-10-10T23:33:19.019Z,7.77
2022-10-10T23:35:56.591Z,9.57
2022-10-10T23:38:24.111Z,5.80
2022-10-10T23:40:51.542Z,8.20
2022-10-10T23:43:19.064Z,7.33
2022-10-10T23:45:46.581Z,10.17
2022-10-10T23:48:15.513Z,5.90
2022-10-10T23:50:43.420Z,7.47
2022-10-10T23:53:10.978Z,5.90
2022-10-10T23:55:38.499Z,6.97
2022-10-10T23:58:06.426Z,6.00
